Extreme weather reports worldwide

Snow

Station
 
Location
 
Name
 
Wind
Knots
Gust
Knots
Vis
SM
Temp/Dew
C
Baro
inHg
METAR
 
CZF PACZ Cape Romanzof, US Cape Romanzof LRRS Airport 34 48 1.5 -16/-19 29.53 PACZ 301855Z AUTO 35034G48KT 220V090 1 1/2SM -SN BR BKN017 M16/M19 A2953 RMK AO2 SNB1755 SLP021 P0000 T11651195
LIMH IT Pian Rosà 36 46 0.06 -10/-11 29.91 LIMH 301755Z 05036G46KT 0100 -SN FZFG VV/// M10/M11 Q1013 RMK MON INVIS VAL INVIS VIS MIN 0100
ETHN Niederstetten, DE Niederstetten Army Air Base 28 46 3.73 1/1 29.76 ETHN 301820Z 26028G46KT 6000 R25/0250N -RASN BKN003 OVC008 01/01 Q1008 YLO YLO
UTO PAIM Utopia Creek, US Indian Mountain LRRS Airport 27 46 8 -18/-27 29.30 PAIM 301855Z AUTO 06027G46KT 040V110 8SM -SHSN BKN120 BKN150 M19/M27 A2930 RMK AO2 SHSNB1641 SLP976 T11861275
ETHA Altenstadt, DE Altenstadt Army Airfield 30 42 1.99 1/1 29.85 ETHA 301820Z 26030G42KT 3200 -SNRA BLSN BKN017 01/01 Q1011 BLACKYLO

Station
 
Location
 
Name
 
Wind
Knots
Gust
Knots
Vis
SM
Temp/Dew
C
Baro
inHg
METAR
 
PHO PAPO Point Hope, US Point Hope Airport 29 41 1.25 -20/-22 29.80 PAPO 301856Z AUTO 04029G41KT 1 1/4SM -SN BR OVC010 M21/M23 A2980 RMK AO2 PK WND 03042/1816 CIG 007V013 SLP091 T12061228 FZRANO PNO $
NLG PAOU Nelson Lagoon, US Nelson Lagoon Airport 31 37 1.25 -8/-12 29.45 PAOU 301856Z AUTO 32031G37KT 1 1/4SM -SN FEW009 BKN026 OVC047 M08/M12 A2945 RMK AO2 PK WND 31037/1848 VIS 1/4V5 SLP973 P0000 T10831122 FZRANO
GOH BGGH Nuuk, GL Godthaab / Nuuk Airport 22 36 6.21 0/-2 29.85 BGGH 301750Z 16022G36KT 9999 -SN FEW005 BKN020 BKN060 M00/M02 Q1011
YEK CYEK Arviat, CA Arviat Airport 30 35 0.5 -20/-23 29.62 CYEK 301800Z 32030G35KT 1/2SM IC BLSN OVC120 M20/M23 A2962 RMK BLSN7AC1 SLP035
CDB PACD Cold Bay, US Cold Bay Airport 26 33 1.5 -7/-10 29.55 PACD 301853Z 32026G33KT 1 1/2SM -SN BLSN BKN033 BKN055 M08/M11 A2955 RMK AO2 PK WND 32038/1806 SNEMMB18SNEMMB35 SLP010 P0001 T10781106 $
SDP PASD Sand Point, US Sand Point Airport 25 32 6 -8/-11 29.43 PASD 301856Z 32025G32KT 6SM -SN BR SCT018 BKN025 OVC029 M08/M12 A2943 RMK AO2 PK WND 33032/1854 SLP967 P0000 T10831117 $
SVO UUEE Moscow, RU Sheremetyevo International Airport 21 31 0.93 -3/-5 28.79 UUEE 301830Z 23011G16MPS 1500 1000NE R24C/P2000U R24R/P2000N SHSN BKN013 BKN026CB M03/M05 Q0975 R24C/590235 R24R/590235 TEMPO 0700 +SHSN BKN011CB
PAJC Chignik, US Chignik Airport 19 31 4 -9/-13 29.30 PAJC 301857Z AUTO 26019G31KT 230V290 4SM -SN SCT020 OVC030 M09/M13 A2930 RMK AO2 PK WND 24038/1838 FZRANO PNO $
VVO UHWW Vladivostok, RU Vladivostok International Airport 17 31 1.18 -8/-11 29.65 UHWW 301830Z 36009G16MPS 1900 R25L/P2000U SHSN BLSN SCT010 BKN020CB M08/M11 Q1004 R25L/490530 NOSIG RMK QFE752
YGR CYGR Îles-de-la-Madeleine, CA Îles-de-la-Madeleine Airport 22 29 6 1/-1 29.41 CYGR 301818Z 29022G29KT 6SM -SHSN BKN019 OVC043 01/M01 A2941 RMK CU5SC3 SLP962
URFF 17 29 0.81 0/0 29.32 URFF 301830Z 36009G15MPS 1300 1200W R01/P2000U SHRASN BKN002 OVC017CB 00/00 Q0993 R01/290495 NOSIG RMK OBST OBSC
DUT PADU Unalaska, US Unalaska Airport 21 28 0.75 -3/-6 29.80 PADU 301856Z 32021G28KT 3/4SM -SN BR BKN007 BKN012 OVC018 M04/M06 A2980 RMK AO2 PK WND 31032/1817 CIG 004V009 SLP097 T10391061 PNO $
YYQ CYYQ Churchill, CA Churchill Airport 21 28 15 -18/-23 29.76 CYYQ 301800Z 31021G28KT 15SM DRSN FEW020 M18/M23 A2976 RMK SC1 SC TR SLP084
YMN CYFT Makkovik, CA Makkovik Airport 18 28 1.25 -3/-4 29.27 CYFT 301841Z 35018G28KT 1 1/4SM -SN OVC003 M03/M04 A2927 RMK ST8 SLP917
OSF UUMO Moscow, RU Ostafyevo International Airport 17 27 1.8 -3/-4 28.88 UUMO 301830Z 25009G14MPS 2900 -SN OVC013 M03/M04 Q0978 R25/590332 NOSIG RMK QFE719/0958
VKO UUWW Moscow, RU Vnukovo International Airport 16 27 1.43 -3/-5 28.85 UUWW 301830Z 23008G14MPS 2300 -SN FEW012 OVC030 M03/M05 Q0977 R19/490537 TEMPO 0700 +SHSN BKN012CB
ZIA UUBW Moscow, RU Zhukovsky International Airport 16 27 2.67 -2/-4 28.88 UUBW 301830Z 24008G14MPS 4300 -SN OVC018 M02/M04 Q0978 R30/250240 TEMPO 1000 SHSN BKN012CB
KVC PAVC King Cove, US King Cove Airport 15 27 0.75 -8/-10 29.55 PAVC 301856Z AUTO 29015G27KT 3/4SM -SN BR FEW006 BKN012 OVC017 M08/M10 A2955 RMK AO2 PK WND 27038/1824 SLP011 P0000 T10831100 FZRANO
ZBF CZBF Bathurst, CA Bathurst Airport 14 27 9 -3/-11 29.60 CZBF 301847Z AUTO 30014G27KT 9SM -SN OVC039 M03/M11 A2960 RMK SLP029
YYY CYYY Mont-Joli, CA Mont Joli Airport 20 25 30 -4/-12 29.68 CYYY 301800Z 29020G25KT 30SM DRSN BKN038 M04/M12 A2968 RMK SC7 SLP055
DME UUDD Moscow, RU Domodedovo International Airport 16 25 1.24 -3/-4 28.88 UUDD 301830Z 25008G13MPS 220V280 2000 R14R/P2000D R14L/P2000D SN BKN011 OVC023 M03/M04 Q0978 R14R/590335 R14L/590339 TEMPO 0600 +SHSN BKN012CB
KQEN 11 25 6.21 2/0 KQEN 301850Z AUTO 24011G25KT 9999 -SN BKN023 02/00 / RMK A02 TSNO
KSC LZKZ Košice, SK Košice Airport 14 24 6.21 1/0 29.53 LZKZ 301830Z 23014G24KT 9999 -SN BKN012 01/M00 Q1000
PIP PAPN Pilot Point, US Pilot Point Airport 17 22 1 -8/-10 29.17 PAPN 301856Z AUTO 27017G22KT 1SM -SN BR BKN016 OVC025 M09/M11 A2917 RMK AO2 SLP880 P0000 T10891106 FZRANO
CYKP 11 22 6 -6/-9 29.69 CYKP 301842Z AUTO 32011G22KT 6SM -SN SCT023 BKN034 OVC041 M06/M09 A2969 RMK SLP070
YLH CYLH Lansdowne House, CA Lansdowne House Airport 13 21 9 -7/-10 29.74 CYLH 301844Z AUTO 30013G21KT 270V340 9SM -SN BKN019 OVC049 M07/M10 A2974 RMK SLP092
YGV CYGV Havre St-Pierre, CA Havre St Pierre Airport 14 20 2.5 -4/-6 29.31 CYGV 301858Z AUTO 32014G20KT 2 1/2SM -SN OVC026 M04/M06 A2931 RMK SLP931
WFK KFVE Frenchville, US Northern Aroostook Regional Airport 13 20 6 -5/-10 29.67 KFVE 301853Z AUTO 29013G20KT 6SM -SN FEW020 BKN030 OVC041 M06/M11 A2967 RMK AO2 SNB18 SLP061 P0000 T10561106
UMIO 14 19 6.21 -2/-6 29.14 UMIO 301830Z 29007G10MPS 9999 DRSN OVC030 M02/M06 Q0987 NOSIG RMK QFE723/0964
GLR KGLR Gaylord, US Gaylord Regional Airport 9 19 4 1/-1 29.76 KGLR 301853Z AUTO 28009G19KT 4SM -SN OVC009 02/M01 A2976 RMK AO2 CIG 006V012 SLP091 P0000 T00171011
UDJ UKLU Uzhhorod, UA Uzhhorod International Airport 6 19 4.35 2/1 29.59 UKLU 301830Z VRB03G10MPS 7000 -SN OVC030 02/01 Q1002 NOSIG
YNA CYNA Natashquan, CA Natashquan Airport 13 18 1.25 -4/-5 29.21 CYNA 301848Z AUTO 31013G18KT 1 1/4SM -SN OVC016 M04/M05 A2921 RMK ICG PAST HR SLP893
YPO CYPO Peawanuck, CA Peawanuck Airport 13 18 2.25 -9/-11 29.61 CYPO 301835Z AUTO 30013G18KT 270V330 2 1/4SM -SN OVC015 M09/M11 A2961 RMK SLP033
YXL CYXL Sioux Lookout, CA Sioux Lookout Airport 12 18 15 -4/-10 29.93 CYXL 301800Z 31012G18KT 15SM DRSN FEW025 SCT210 M04/M10 A2993 RMK CF2CI1 SLP162
YTL CYTL Big Trout Lake, CA Big Trout Lake Airport 11 18 9 -11/-15 29.79 CYTL 301853Z AUTO 31011G18KT 9SM -SN BKN021 M11/M15 A2979 RMK SLP110
ENUG 8 18 -2/-6 29.35 ENUG 301850Z AUTO 15008G18KT 9999NDV -SHSN SCT018/// OVC023/// M02/M06 Q0994 W///S3
YWK CYWK Wabush, CA Wabush Airport 12 17 15 -9/-14 29.48 CYWK 301800Z 35012G17KT 15SM DRSN SCT028 OVC044 M09/M14 A2948 RMK CF3CU5 SLP021
KNW PANW New Stuyahok, US New Stuyahok Airport 11 17 4 -21/-23 29.20 PANW 301856Z AUTO 36011G17KT 4SM -SN OVC028 M21/M24 A2920 RMK AO2 SLP901 P0000 T12111239 FZRANO
ZUM CZUM Churchill Falls, CA Churchill Falls Airport 11 16 2 -8/-11 29.37 CZUM 301813Z AUTO 36011G16KT 2SM -SN FEW019 BKN024 OVC034 M08/M11 A2937 RMK VIS VRB 1-3 PRESFR SLP981
YPY CYPY Fort Chipewyan, CA Fort Chipewyan Airport 11 16 2 -9/-11 29.61 CYPY 301854Z AUTO 07011G16KT 2SM -SN OVC026 M09/M11 A2961 RMK SLP048
KGOV Grayling, US Grayling Army Air Field 10 16 4 1/0 29.78 KGOV 301853Z AUTO 29010G16KT 4SM -SN BR OVC007 01/00 A2978 RMK AO2 UPE08SNB08 SLP103 $
YYR CYYR Goose Bay, CA Goose Bay Airport 10 15 4 -5/-8 29.27 CYYR 301854Z 34010G15KT 4SM -SN SCT006 OVC028 M05/M08 A2927 RMK SF3SC5 VIS N 8 SLP916
KMWN 46 0.06 -14/-14 KMWN 301756Z 28046KT 1/16SM -SHSN FZFG BLSN VV000 M14/M14 RMK VRY LGT ICG 60001 4/009 931001 11144 21164
YZG CYZG Salluit, CA Salluit Airport 25 6 -10/-12 29.57 CYZG 301843Z 18025KT 6SM -SHSN BLSN SCT010 BKN056 M10/M12 A2957 RMK SN2SF1SC3 SLP039
TNC PATC Tin City, US Tin City Long Range Radar Station Airport 24 1.75 -20/-22 29.64 PATC 301855Z AUTO 03024KT 1 3/4SM -SHSN BR FEW014 M20/M22 A2964 RMK AO2 PK WND 03031/1755 SNB1656E1847SHSNB1849 SLP051 P0000 T12011223